Time;durP1;ratioP1;P1;durP2;ratioP2;P2;SDS_P1;SDS_P2;PMS_P1;PMS_P2;Temp;Humidity;BMP_temperature;BMP_pressure;BME280_temperature;BME280_humidity;BME280_pressure;Samples;Min_cycle;Max_cycle;Signal;HPM_P1;HPM_P2
2023/08/17 00:02:14;;;;;;;15.25;10.15;;;22.50;99.90;;;;;;5026205;28;20957;-82
2023/08/17 00:04:42;;;;;;;15.38;10.25;;;22.50;99.90;;;;;;5026829;28;20586;-82
2023/08/17 00:07:09;;;;;;;15.45;10.40;;;22.50;99.90;;;;;;5026846;28;20233;-83
2023/08/17 00:09:37;;;;;;;19.55;10.85;;;22.50;99.90;;;;;;5026990;28;20594;-83
2023/08/17 00:12:05;;;;;;;16.50;10.60;;;22.40;99.90;;;;;;5009281;28;20242;-82
2023/08/17 00:14:32;;;;;;;15.73;10.40;;;22.50;99.90;;;;;;5025498;28;20213;-83
2023/08/17 00:17:00;;;;;;;23.60;10.85;;;22.40;99.90;;;;;;5025275;28;20688;-82
2023/08/17 00:19:28;;;;;;;20.27;10.77;;;22.40;99.90;;;;;;5026764;28;20194;-83
2023/08/17 00:21:55;;;;;;;19.13;10.02;;;22.30;99.90;;;;;;5025472;28;20660;-83
2023/08/17 00:24:23;;;;;;;18.25;10.75;;;22.30;99.90;;;;;;5025716;28;20198;-82
2023/08/17 00:26:51;;;;;;;19.30;10.43;;;22.30;99.90;;;;;;5025690;28;20198;-83
2023/08/17 00:29:19;;;;;;;16.58;10.85;;;22.30;99.90;;;;;;5009250;28;20208;-82
2023/08/17 00:31:47;;;;;;;17.75;11.48;;;22.20;99.90;;;;;;5025321;28;20206;-83
2023/08/17 00:34:15;;;;;;;18.13;10.18;;;22.20;99.90;;;;;;5026843;28;20210;-82
2023/08/17 00:36:42;;;;;;;19.55;10.93;;;22.20;99.90;;;;;;5008875;28;20726;-82
2023/08/17 00:39:10;;;;;;;19.38;10.85;;;22.20;99.90;;;;;;5025305;28;20667;-83
2023/08/17 00:41:38;;;;;;;19.45;10.27;;;22.20;99.90;;;;;;5025141;28;20206;-81
2023/08/17 00:44:05;;;;;;;15.25;10.75;;;22.20;99.90;;;;;;5024920;28;20212;-84
2023/08/17 00:46:33;;;;;;;17.80;11.57;;;22.20;99.90;;;;;;5026402;28;20776;-83
2023/08/17 00:49:01;;;;;;;20.10;11.18;;;22.10;99.90;;;;;;5026582;28;20869;-83
2023/08/17 00:51:29;;;;;;;17.27;10.80;;;22.10;99.90;;;;;;5024824;28;20200;-83
2023/08/17 00:53:59;;;;;;;16.95;10.82;;;22.10;99.90;;;;;;5024526;28;20194;-83
2023/08/17 00:56:27;;;;;;;15.73;10.50;;;22.10;99.90;;;;;;5093371;28;20653;-82
2023/08/17 00:58:56;;;;;;;14.80;10.82;;;22.00;99.90;;;;;;5024650;28;20222;-84
2023/08/17 01:01:23;;;;;;;17.35;10.55;;;22.00;99.90;;;;;;5026084;28;20187;-83
2023/08/17 01:03:51;;;;;;;15.02;9.90;;;21.90;99.90;;;;;;5026162;28;20656;-83
2023/08/17 01:06:19;;;;;;;18.58;11.05;;;22.00;99.90;;;;;;5024550;28;20206;-82
2023/08/17 01:08:47;;;;;;;19.70;10.43;;;21.80;99.90;;;;;;5025813;28;20237;-82
2023/08/17 01:11:24;;;;;;;16.98;10.65;;;21.80;99.90;;;;;;5024496;28;20591;-82
2023/08/17 01:13:56;;;;;;;20.52;10.25;;;21.80;99.90;;;;;;5027164;28;20194;-83
2023/08/17 01:16:33;;;;;;;18.35;10.65;;;21.80;99.90;;;;;;5011977;28;20197;-83
2023/08/17 01:19:01;;;;;;;22.05;11.07;;;21.80;99.90;;;;;;5029915;28;20223;-83
2023/08/17 01:21:41;;;;;;;19.98;9.60;;;21.70;99.90;;;;;;5028168;28;20192;-82
2023/08/17 01:24:11;;;;;;;16.85;10.55;;;21.70;99.90;;;;;;5029581;28;20166;-82
2023/08/17 01:26:38;;;;;;;17.25;11.73;;;21.70;99.90;;;;;;5029246;28;20680;-82
2023/08/17 01:29:07;;;;;;;15.00;11.45;;;21.70;99.90;;;;;;5028076;28;20204;-82
2023/08/17 01:31:59;;;;;;;19.00;10.73;;;21.80;99.90;;;;;;5029314;28;20656;-83
2023/08/17 01:34:29;;;;;;;17.63;11.15;;;21.70;99.90;;;;;;5049418;28;20203;-82
2023/08/17 01:37:01;;;;;;;18.30;9.80;;;21.70;99.90;;;;;;5028940;28;20212;-83
2023/08/17 01:39:37;;;;;;;17.63;10.73;;;21.70;99.90;;;;;;5028115;28;20178;-82
2023/08/17 01:42:06;;;;;;;21.73;9.80;;;21.70;99.90;;;;;;5029079;28;20223;-82
2023/08/17 01:44:34;;;;;;;16.42;10.25;;;21.70;99.90;;;;;;5027735;28;20546;-83
2023/08/17 01:47:02;;;;;;;16.70;9.98;;;21.60;99.90;;;;;;5029407;28;20205;-83
2023/08/17 01:49:30;;;;;;;18.00;11.63;;;21.60;99.90;;;;;;5029197;28;20182;-82
2023/08/17 01:51:58;;;;;;;17.15;10.65;;;21.60;99.90;;;;;;5029154;28;20194;-82
2023/08/17 01:54:26;;;;;;;18.10;10.77;;;21.50;99.90;;;;;;5029020;28;20190;-81
2023/08/17 01:56:56;;;;;;;17.40;10.70;;;21.60;99.90;;;;;;5027563;28;20194;-83
2023/08/17 01:59:23;;;;;;;16.23;10.07;;;21.60;99.90;;;;;;5027364;28;20630;-81
2023/08/17 02:01:51;;;;;;;16.60;10.75;;;21.50;99.90;;;;;;5027321;28;20214;-82
2023/08/17 02:04:19;;;;;;;20.90;10.00;;;21.50;99.90;;;;;;5027325;28;20302;-82
2023/08/17 02:06:46;;;;;;;19.90;11.30;;;21.40;99.90;;;;;;5026906;28;20198;-83
2023/08/17 02:09:14;;;;;;;19.60;11.27;;;21.40;99.90;;;;;;5028657;28;20243;-82
2023/08/17 02:11:42;;;;;;;19.23;10.60;;;21.40;99.90;;;;;;5027090;28;20270;-82
2023/08/17 02:14:09;;;;;;;13.90;10.00;;;21.40;99.90;;;;;;5027200;28;20324;-81
2023/08/17 02:16:37;;;;;;;14.82;10.60;;;21.40;99.90;;;;;;5028891;28;20198;-83
2023/08/17 02:19:05;;;;;;;14.50;10.45;;;21.40;99.90;;;;;;5113855;27;20262;-82
2023/08/17 02:21:33;;;;;;;15.98;10.82;;;21.30;99.90;;;;;;5027314;28;20206;-83
2023/08/17 02:24:00;;;;;;;17.05;11.18;;;21.40;99.90;;;;;;5096271;28;20197;-82
2023/08/17 02:26:30;;;;;;;14.50;9.55;;;21.30;99.90;;;;;;5027859;28;20193;-82
2023/08/17 02:28:58;;;;;;;18.83;10.43;;;21.30;99.90;;;;;;5026949;28;20198;-81
2023/08/17 02:31:25;;;;;;;19.13;9.90;;;21.20;99.90;;;;;;5113400;27;20186;-82
2023/08/17 02:34:04;;;;;;;20.83;11.02;;;21.20;99.90;;;;;;5028308;28;20201;-82
2023/08/17 02:36:32;;;;;;;15.35;10.38;;;21.20;99.90;;;;;;5028345;28;20166;-83
2023/08/17 02:39:03;;;;;;;16.08;10.65;;;21.20;99.90;;;;;;5028644;28;20190;-82
2023/08/17 02:41:32;;;;;;;12.68;9.70;;;21.20;99.90;;;;;;5026978;28;20193;-83
2023/08/17 02:44:01;;;;;;;14.77;9.77;;;21.10;99.90;;;;;;5028007;28;20197;-82
2023/08/17 02:46:29;;;;;;;18.10;10.30;;;21.00;99.90;;;;;;5036539;28;20186;-83
2023/08/17 02:48:57;;;;;;;17.10;9.82;;;21.00;99.90;;;;;;5042966;28;20201;-82
2023/08/17 02:51:24;;;;;;;13.35;9.05;;;21.00;99.90;;;;;;5027975;28;20182;-83
2023/08/17 02:53:52;;;;;;;19.35;11.02;;;21.10;99.90;;;;;;5041485;28;20209;-81
2023/08/17 02:56:20;;;;;;;18.80;10.75;;;21.00;99.90;;;;;;5010329;28;20199;-83
2023/08/17 02:58:47;;;;;;;18.80;11.48;;;21.00;99.90;;;;;;5037117;28;20194;-82
2023/08/17 03:01:16;;;;;;;16.50;10.10;;;20.80;99.90;;;;;;5026451;28;20536;-82
2023/08/17 03:03:44;;;;;;;14.07;9.90;;;20.80;99.90;;;;;;5042992;28;20395;-82
2023/08/17 03:06:11;;;;;;;16.10;10.52;;;20.80;99.90;;;;;;5027880;28;20290;-83
2023/08/17 03:08:39;;;;;;;15.73;9.75;;;20.80;99.90;;;;;;5030477;28;20323;-83
2023/08/17 03:11:09;;;;;;;13.88;10.65;;;20.80;99.90;;;;;;5046292;28;20189;-82
2023/08/17 03:13:37;;;;;;;16.55;10.25;;;20.80;99.90;;;;;;5132710;27;20209;-83
2023/08/17 03:16:04;;;;;;;16.27;9.93;;;20.70;99.90;;;;;;5046116;28;20193;-82
2023/08/17 03:18:32;;;;;;;15.45;9.73;;;20.70;99.90;;;;;;5047571;28;20421;-83
2023/08/17 03:21:00;;;;;;;12.20;9.98;;;20.70;99.90;;;;;;5047625;28;20238;-83
2023/08/17 03:23:28;;;;;;;14.30;9.80;;;20.70;99.90;;;;;;5046220;28;20262;-82
2023/08/17 03:25:56;;;;;;;16.38;10.02;;;20.70;99.90;;;;;;5046233;28;20189;-83
2023/08/17 03:28:25;;;;;;;15.75;9.98;;;20.70;99.90;;;;;;5132979;27;20266;-82
2023/08/17 03:30:57;;;;;;;14.60;9.65;;;20.70;99.90;;;;;;5037166;28;20190;-83
2023/08/17 03:33:25;;;;;;;16.23;10.27;;;20.80;99.90;;;;;;5031097;28;20224;-82
2023/08/17 03:35:53;;;;;;;16.90;8.95;;;20.70;99.90;;;;;;5041617;28;20194;-83
2023/08/17 03:38:21;;;;;;;13.93;9.93;;;20.70;99.90;;;;;;5026008;28;20301;-82
2023/08/17 03:40:49;;;;;;;13.75;10.45;;;20.70;99.90;;;;;;5027157;28;20196;-83
2023/08/17 03:43:16;;;;;;;15.60;10.32;;;20.70;99.90;;;;;;5027540;28;20715;-83
2023/08/17 03:45:46;;;;;;;15.90;9.68;;;20.70;99.90;;;;;;5026880;28;20746;-83
2023/08/17 03:48:14;;;;;;;15.95;10.23;;;20.70;99.90;;;;;;5043938;28;20540;-84
2023/08/17 03:50:42;;;;;;;14.48;10.35;;;20.70;99.90;;;;;;5046913;28;20735;-83
2023/08/17 03:53:09;;;;;;;17.63;10.55;;;20.70;99.90;;;;;;5046154;28;20570;-82
2023/08/17 03:55:37;;;;;;;19.67;11.32;;;20.60;99.90;;;;;;5031686;28;20245;-82
2023/08/17 03:58:07;;;;;;;17.73;10.05;;;20.60;99.90;;;;;;5046135;28;20244;-83
2023/08/17 04:00:34;;;;;;;16.55;10.35;;;20.60;99.90;;;;;;5032013;28;20428;-83
2023/08/17 04:03:02;;;;;;;13.05;9.45;;;20.60;99.90;;;;;;5043817;28;20219;-82
2023/08/17 04:05:30;;;;;;;14.75;9.57;;;20.60;99.90;;;;;;5036544;28;20197;-82
2023/08/17 04:08:02;;;;;;;16.63;10.13;;;20.60;99.90;;;;;;5046822;28;20637;-83
2023/08/17 04:10:30;;;;;;;15.57;9.85;;;20.50;99.90;;;;;;5038102;28;20225;-83
2023/08/17 04:12:57;;;;;;;15.55;9.65;;;20.50;99.90;;;;;;5026839;28;20206;-82
2023/08/17 04:15:25;;;;;;;19.70;10.48;;;20.40;99.90;;;;;;5026735;28;20269;-83
2023/08/17 04:17:53;;;;;;;16.85;10.63;;;20.50;99.90;;;;;;5026782;28;20576;-82
2023/08/17 04:20:22;;;;;;;18.10;10.82;;;20.50;99.90;;;;;;5026626;28;20664;-84
2023/08/17 04:22:50;;;;;;;17.75;10.43;;;20.40;99.90;;;;;;5025261;28;20599;-82
2023/08/17 04:25:19;;;;;;;12.75;10.70;;;20.50;99.90;;;;;;5041587;28;20194;-83
2023/08/17 04:27:47;;;;;;;16.33;11.18;;;20.60;99.90;;;;;;5026549;28;20675;-82
2023/08/17 04:30:15;;;;;;;19.65;10.43;;;20.60;99.90;;;;;;5027353;28;20202;-82
2023/08/17 04:32:52;;;;;;;18.10;10.52;;;20.50;99.90;;;;;;5041992;28;20623;-81
2023/08/17 04:35:21;;;;;;;15.85;10.52;;;20.50;99.90;;;;;;5028058;28;20746;-83
2023/08/17 04:37:49;;;;;;;16.45;10.70;;;20.50;99.90;;;;;;5024959;28;20225;-82
2023/08/17 04:40:17;;;;;;;13.38;10.35;;;20.50;99.90;;;;;;5024667;28;20193;-82
2023/08/17 04:42:45;;;;;;;18.52;10.35;;;20.50;99.90;;;;;;5024981;28;20231;-82
2023/08/17 04:45:12;;;;;;;15.02;10.30;;;20.50;99.90;;;;;;5041381;28;20258;-82
2023/08/17 04:47:43;;;;;;;18.38;11.05;;;20.50;99.90;;;;;;5009276;28;20182;-83
2023/08/17 04:50:16;;;;;;;15.20;10.38;;;20.50;99.90;;;;;;5025418;28;20677;-83
2023/08/17 04:52:44;;;;;;;15.63;10.07;;;20.50;99.90;;;;;;5041356;28;20186;-81
2023/08/17 04:55:13;;;;;;;19.95;10.13;;;20.50;99.90;;;;;;5039396;28;20287;-82
2023/08/17 04:57:42;;;;;;;14.70;10.18;;;20.50;99.90;;;;;;5044382;28;20200;-82
2023/08/17 05:00:15;;;;;;;15.38;10.65;;;20.50;99.90;;;;;;5040235;28;20197;-82
2023/08/17 05:02:43;;;;;;;15.80;9.48;;;20.50;99.90;;;;;;5024697;28;20182;-81
2023/08/17 05:05:13;;;;;;;13.88;9.98;;;20.50;99.90;;;;;;5043699;28;20674;-83
2023/08/17 05:07:40;;;;;;;14.90;9.23;;;20.60;99.90;;;;;;5021004;28;20233;-82
2023/08/17 05:10:10;;;;;;;17.80;9.80;;;20.60;99.90;;;;;;5023462;28;20216;-82
2023/08/17 05:12:39;;;;;;;17.85;10.10;;;20.70;99.90;;;;;;5031375;28;20284;-82
2023/08/17 05:15:07;;;;;;;13.43;9.75;;;20.70;99.90;;;;;;5042514;28;20239;-82
2023/08/17 05:17:39;;;;;;;13.68;9.45;;;20.70;99.90;;;;;;5028712;28;20655;-82
2023/08/17 05:20:09;;;;;;;15.10;9.82;;;20.70;99.90;;;;;;5025173;28;20608;-82
2023/08/17 05:22:37;;;;;;;15.88;9.25;;;20.80;99.90;;;;;;5032595;28;20193;-83
2023/08/17 05:25:05;;;;;;;11.68;9.38;;;20.80;99.90;;;;;;5035341;28;20208;-84
2023/08/17 05:27:35;;;;;;;14.57;9.55;;;20.80;99.90;;;;;;5032937;28;20289;-82
2023/08/17 05:30:03;;;;;;;14.02;9.50;;;20.90;99.90;;;;;;5038619;28;20213;-83
2023/08/17 05:32:30;;;;;;;12.52;9.68;;;20.90;99.90;;;;;;5042149;28;20217;-83
2023/08/17 05:34:58;;;;;;;14.45;9.70;;;21.00;99.90;;;;;;5036545;28;20225;-83
2023/08/17 05:37:26;;;;;;;15.88;9.60;;;21.00;99.90;;;;;;5043198;28;20205;-84
2023/08/17 05:39:54;;;;;;;18.33;9.95;;;21.00;99.90;;;;;;5051047;28;20563;-85
2023/08/17 05:42:22;;;;;;;13.70;9.82;;;21.10;99.90;;;;;;5027667;28;20190;-84
2023/08/17 05:44:50;;;;;;;13.13;9.48;;;21.20;99.90;;;;;;5040043;28;20226;-84
2023/08/17 06:03:11;;;;;;;22.58;12.10;;;21.40;99.90;;;;;;5049786;28;20546;-88
2023/08/17 06:05:40;;;;;;;16.65;11.57;;;21.80;99.90;;;;;;5019919;28;20233;-90
2023/08/17 06:08:08;;;;;;;18.08;11.27;;;22.00;99.90;;;;;;5038579;28;20188;-89
2023/08/17 06:10:35;;;;;;;15.52;11.10;;;22.00;99.90;;;;;;5039356;28;20200;-87
2023/08/17 06:13:03;;;;;;;18.15;11.52;;;22.10;99.90;;;;;;5024734;28;20675;-88
2023/08/17 06:15:31;;;;;;;13.75;10.68;;;22.20;99.90;;;;;;5026877;28;20273;-89
2023/08/17 06:17:58;;;;;;;19.15;11.38;;;22.10;99.90;;;;;;5030106;28;20189;-89
2023/08/17 06:20:26;;;;;;;13.45;11.05;;;22.10;99.90;;;;;;5032714;28;20186;-89
2023/08/17 06:22:54;;;;;;;15.48;11.48;;;22.20;99.90;;;;;;5034705;28;20856;-89
2023/08/17 06:25:21;;;;;;;15.65;11.18;;;22.20;99.90;;;;;;5034359;28;20225;-87
2023/08/17 06:27:49;;;;;;;17.75;12.25;;;22.20;99.90;;;;;;5039871;28;20282;-88
2023/08/17 06:30:18;;;;;;;18.17;10.90;;;22.30;99.90;;;;;;5042370;28;20240;-88
2023/08/17 06:32:45;;;;;;;21.10;11.88;;;22.40;99.90;;;;;;5031692;28;20210;-88
2023/08/17 06:35:13;;;;;;;14.52;10.48;;;22.50;99.90;;;;;;5116622;27;20178;-88
2023/08/17 06:37:40;;;;;;;14.35;10.38;;;22.60;99.90;;;;;;5036778;28;20196;-89
2023/08/17 06:40:09;;;;;;;14.15;10.00;;;22.70;99.90;;;;;;5023245;28;20193;-90
2023/08/17 06:42:36;;;;;;;16.20;10.18;;;22.70;99.90;;;;;;5020559;28;20205;-89
2023/08/17 06:45:05;;;;;;;15.23;9.55;;;22.80;99.90;;;;;;5031171;28;20216;-84
2023/08/17 06:47:32;;;;;;;10.68;8.73;;;22.80;99.90;;;;;;5026786;28;20190;-86
2023/08/17 06:50:00;;;;;;;14.43;9.43;;;22.90;99.90;;;;;;5019965;28;20194;-84
2023/08/17 06:52:27;;;;;;;14.63;9.43;;;22.90;99.90;;;;;;5034817;28;20213;-84
2023/08/17 06:54:55;;;;;;;13.35;9.95;;;22.90;99.90;;;;;;5029009;28;20190;-84
2023/08/17 06:57:22;;;;;;;16.25;8.95;;;23.00;99.90;;;;;;5027491;28;20273;-84
2023/08/17 06:59:50;;;;;;;15.95;10.75;;;23.00;99.90;;;;;;5008256;28;20252;-84
2023/08/17 07:02:19;;;;;;;14.07;9.75;;;23.20;99.90;;;;;;5030954;28;20985;-84
2023/08/17 07:04:47;;;;;;;17.70;10.45;;;23.40;99.90;;;;;;5017958;28;20191;-84
2023/08/17 07:07:15;;;;;;;12.45;10.25;;;23.40;99.90;;;;;;5014711;28;20198;-84
2023/08/17 07:09:42;;;;;;;13.48;9.98;;;23.40;99.90;;;;;;4997063;28;20217;-84
2023/08/17 07:12:10;;;;;;;15.25;10.90;;;23.50;99.90;;;;;;5018348;28;20203;-84
2023/08/17 07:14:37;;;;;;;14.13;9.68;;;23.70;99.90;;;;;;5020559;28;20187;-84
2023/08/17 07:17:05;;;;;;;16.80;10.80;;;23.60;99.90;;;;;;5014787;28;20562;-84
2023/08/17 07:19:32;;;;;;;14.05;10.15;;;23.60;99.90;;;;;;5017585;28;20266;-84
2023/08/17 07:22:20;;;;;;;16.45;11.27;;;23.70;99.90;;;;;;5018398;28;20614;-84
2023/08/17 07:24:47;;;;;;;17.85;10.93;;;23.90;99.90;;;;;;5019749;28;20283;-83
2023/08/17 07:27:15;;;;;;;17.30;9.60;;;24.00;99.90;;;;;;5015181;28;20224;-84
2023/08/17 07:29:43;;;;;;;13.40;10.40;;;24.00;99.90;;;;;;5016229;28;20600;-83
2023/08/17 07:32:10;;;;;;;14.30;10.65;;;23.90;99.90;;;;;;5021698;28;20226;-83
2023/08/17 07:34:38;;;;;;;17.35;10.00;;;23.90;99.90;;;;;;5011518;28;20670;-83
2023/08/17 07:37:06;;;;;;;18.42;10.93;;;23.90;99.90;;;;;;5022913;28;20206;-83
2023/08/17 07:39:33;;;;;;;14.60;9.57;;;24.10;99.90;;;;;;5016108;28;20192;-84
2023/08/17 07:42:01;;;;;;;16.63;9.68;;;24.10;99.90;;;;;;5009794;28;20198;-83
2023/08/17 07:44:31;;;;;;;19.90;10.02;;;24.30;99.90;;;;;;5022386;28;20194;-83
2023/08/17 07:46:59;;;;;;;11.23;10.10;;;24.20;99.90;;;;;;4997470;28;20206;-83
2023/08/17 07:49:29;;;;;;;15.10;10.00;;;24.30;99.90;;;;;;5009511;28;20187;-83
2023/08/17 07:52:17;;;;;;;13.85;9.80;;;24.30;99.90;;;;;;5016128;28;20280;-83
2023/08/17 07:54:48;;;;;;;12.73;9.77;;;24.40;99.90;;;;;;5019368;28;20182;-83
2023/08/17 07:57:19;;;;;;;14.48;9.65;;;24.40;99.90;;;;;;5017212;28;20250;-83
2023/08/17 07:59:49;;;;;;;12.50;10.20;;;24.30;99.90;;;;;;5019084;28;20235;-84
2023/08/17 08:02:18;;;;;;;13.25;10.07;;;24.40;99.90;;;;;;5018825;28;20222;-83
2023/08/17 08:04:48;;;;;;;13.13;9.80;;;24.50;99.90;;;;;;5017781;28;20235;-83
2023/08/17 08:07:16;;;;;;;14.80;9.52;;;24.60;99.90;;;;;;5014678;28;20247;-83
2023/08/17 08:09:44;;;;;;;13.25;9.52;;;24.60;99.90;;;;;;5015569;28;20281;-83
2023/08/17 08:12:14;;;;;;;15.07;10.10;;;24.70;99.90;;;;;;5014333;28;20695;-83
2023/08/17 08:14:41;;;;;;;14.55;9.40;;;24.80;99.90;;;;;;5015148;28;20235;-83
2023/08/17 08:17:09;;;;;;;12.43;9.32;;;24.80;99.90;;;;;;5014409;28;20195;-83
2023/08/17 08:19:36;;;;;;;16.50;9.18;;;24.90;99.90;;;;;;5020954;28;20186;-83
2023/08/17 08:22:04;;;;;;;15.07;9.90;;;24.90;99.90;;;;;;5016298;28;20186;-82
2023/08/17 08:24:34;;;;;;;16.27;9.55;;;24.90;99.90;;;;;;5008146;28;20782;-83
2023/08/17 08:27:05;;;;;;;15.40;9.05;;;25.00;99.90;;;;;;5011539;28;20194;-83
2023/08/17 08:29:34;;;;;;;15.52;10.52;;;25.00;99.90;;;;;;5017073;28;20212;-83
2023/08/17 08:32:04;;;;;;;19.25;10.60;;;25.00;99.90;;;;;;5018473;28;20203;-83
2023/08/17 08:34:31;;;;;;;17.23;9.15;;;24.90;99.90;;;;;;5101861;27;20243;-81
2023/08/17 08:36:59;;;;;;;12.93;9.38;;;25.00;99.90;;;;;;5033917;28;20197;-83
2023/08/17 08:39:27;;;;;;;15.40;8.52;;;25.00;99.90;;;;;;5020036;28;20214;-83
2023/08/17 08:41:55;;;;;;;16.05;9.02;;;25.10;99.90;;;;;;5013727;28;20280;-84
2023/08/17 08:44:23;;;;;;;13.77;9.13;;;25.30;99.90;;;;;;5019575;28;20190;-84
2023/08/17 08:46:54;;;;;;;13.75;9.57;;;25.40;99.90;;;;;;5016133;28;20201;-83
2023/08/17 08:49:24;;;;;;;10.98;9.10;;;25.40;99.90;;;;;;5015133;28;20190;-83
2023/08/17 08:51:52;;;;;;;17.05;10.18;;;25.60;99.90;;;;;;5039057;28;20206;-84
2023/08/17 08:54:26;;;;;;;13.88;8.68;;;25.60;99.90;;;;;;5018359;28;20190;-83
2023/08/17 08:57:03;;;;;;;11.90;9.27;;;25.60;99.90;;;;;;5014733;28;20202;-84
2023/08/17 08:59:32;;;;;;;15.98;9.23;;;25.60;99.90;;;;;;5019005;28;20779;-84
2023/08/17 09:02:01;;;;;;;13.40;9.10;;;25.60;99.90;;;;;;5016351;28;20782;-84
2023/08/17 09:04:30;;;;;;;15.02;9.27;;;25.60;99.90;;;;;;5015781;28;20194;-84
2023/08/17 09:06:57;;;;;;;13.40;9.77;;;25.60;99.90;;;;;;5014739;28;20194;-83
2023/08/17 09:09:25;;;;;;;14.60;8.23;;;25.70;99.90;;;;;;5011704;28;20197;-84
2023/08/17 09:11:57;;;;;;;13.10;8.45;;;25.80;99.90;;;;;;4995721;28;20245;-84
2023/08/17 09:14:24;;;;;;;14.43;9.15;;;25.80;99.90;;;;;;5013911;28;20597;-84
2023/08/17 09:16:52;;;;;;;12.77;8.73;;;25.70;99.90;;;;;;5010268;28;20186;-84
2023/08/17 09:19:20;;;;;;;12.38;8.45;;;25.70;99.90;;;;;;4994688;28;20198;-84
2023/08/17 09:21:48;;;;;;;14.32;8.10;;;25.70;99.90;;;;;;5011144;28;20692;-84
2023/08/17 09:24:18;;;;;;;10.30;8.30;;;25.70;99.90;;;;;;5009997;28;20204;-84
2023/08/17 09:26:46;;;;;;;13.10;8.70;;;25.90;99.90;;;;;;5011682;28;20194;-84
2023/08/17 09:29:22;;;;;;;15.73;8.85;;;26.10;99.90;;;;;;5011938;28;20197;-83
2023/08/17 09:31:50;;;;;;;12.98;8.32;;;26.10;99.90;;;;;;5007767;28;20211;-84
2023/08/17 09:34:19;;;;;;;12.32;8.13;;;26.20;99.90;;;;;;5019332;28;20186;-84
2023/08/17 09:36:49;;;;;;;16.55;8.50;;;26.20;99.90;;;;;;5016729;28;20190;-90
2023/08/17 09:39:18;;;;;;;11.98;8.25;;;26.20;99.90;;;;;;5008544;28;20203;-88
2023/08/17 09:41:45;;;;;;;14.75;9.50;;;26.30;99.90;;;;;;5015740;28;20694;-88
2023/08/17 09:44:13;;;;;;;15.65;9.18;;;26.40;99.90;;;;;;5017780;28;20190;-88
2023/08/17 09:46:44;;;;;;;13.70;9.43;;;26.60;99.90;;;;;;5021345;28;20202;-87
2023/08/17 09:49:12;;;;;;;11.98;8.73;;;26.60;99.90;;;;;;5023021;28;20221;-89
2023/08/17 09:51:43;;;;;;;10.90;7.63;;;26.70;99.90;;;;;;5022241;28;20216;-89
2023/08/17 09:54:26;;;;;;;11.80;8.50;;;26.60;99.90;;;;;;5023055;28;20660;-88
2023/08/17 09:56:54;;;;;;;15.57;8.35;;;26.60;99.90;;;;;;5015297;28;20661;-88
2023/08/17 09:59:23;;;;;;;10.23;8.23;;;26.80;99.90;;;;;;5089254;28;20566;-89
2023/08/17 10:01:51;;;;;;;16.15;9.45;;;27.00;99.90;;;;;;5017457;28;20226;-89
2023/08/17 10:04:23;;;;;;;9.68;8.30;;;27.00;99.90;;;;;;5025330;28;20662;-90
2023/08/17 10:07:03;;;;;;;9.68;7.75;;;27.00;99.90;;;;;;5009346;28;20219;-91
2023/08/17 10:09:39;;;;;;;13.82;8.60;;;26.80;99.90;;;;;;5026268;28;20194;-91
2023/08/17 10:12:12;;;;;;;17.17;9.02;;;26.70;99.90;;;;;;5015657;28;20198;-89
2023/08/17 10:14:46;;;;;;;12.70;8.35;;;26.70;99.90;;;;;;5026319;28;20687;-90
2023/08/17 10:17:21;;;;;;;13.68;8.05;;;26.60;99.90;;;;;;5021185;28;20192;-92
2023/08/17 10:19:59;;;;;;;15.23;7.85;;;26.50;99.90;;;;;;5007202;28;20194;-92
2023/08/17 10:23:12;;;;;;;18.90;8.25;;;26.50;99.90;;;;;;5013232;28;20696;-90
2023/08/17 10:25:42;;;;;;;13.25;8.63;;;26.50;99.90;;;;;;4953283;28;20560;-89
2023/08/17 10:28:11;;;;;;;11.18;7.90;;;26.60;99.90;;;;;;5004547;28;20207;-91
2023/08/17 10:30:39;;;;;;;14.35;8.88;;;26.50;99.90;;;;;;5021424;28;20209;-91
2023/08/17 10:33:08;;;;;;;9.27;8.27;;;26.70;99.90;;;;;;5023094;28;20198;-90
2023/08/17 10:35:38;;;;;;;17.80;9.18;;;26.70;99.90;;;;;;5019309;28;20187;-91
2023/08/17 10:38:06;;;;;;;14.35;8.63;;;26.80;99.90;;;;;;5022334;28;20190;-91
2023/08/17 10:40:39;;;;;;;11.13;8.85;;;26.80;99.90;;;;;;5022945;28;20251;-90
2023/08/17 10:43:07;;;;;;;12.95;9.07;;;26.80;99.90;;;;;;5000362;28;20209;-92
2023/08/17 10:45:38;;;;;;;12.88;8.52;;;26.70;99.90;;;;;;4997428;28;20214;-88
2023/08/17 10:48:09;;;;;;;16.75;8.95;;;26.70;99.90;;;;;;5079973;28;20179;-90
2023/08/17 10:50:38;;;;;;;13.52;9.23;;;26.70;99.90;;;;;;5010177;28;20194;-90
2023/08/17 10:53:10;;;;;;;13.90;8.88;;;26.80;99.90;;;;;;5012301;28;20190;-89
2023/08/17 10:55:44;;;;;;;13.88;8.88;;;26.80;99.90;;;;;;5013189;28;20214;-90
2023/08/17 10:58:12;;;;;;;13.60;8.85;;;26.80;99.90;;;;;;5013332;28;20194;-87
2023/08/17 11:00:43;;;;;;;18.30;8.90;;;26.80;99.90;;;;;;5010594;28;20196;-88
2023/08/17 11:03:20;;;;;;;11.90;8.45;;;26.80;99.90;;;;;;5022026;28;20229;-88
2023/08/17 11:05:55;;;;;;;10.60;9.02;;;26.80;99.90;;;;;;5024026;28;20191;-89
2023/08/17 11:08:27;;;;;;;8.93;8.05;;;26.90;99.90;;;;;;5027185;28;20197;-89
2023/08/17 11:11:06;;;;;;;10.85;8.05;;;26.80;99.90;;;;;;5038587;28;20649;-89
2023/08/17 11:13:36;;;;;;;15.00;10.07;;;26.90;99.90;;;;;;5022115;28;20200;-88
2023/08/17 11:16:06;;;;;;;13.27;8.95;;;27.00;99.90;;;;;;5015717;28;20198;-90
2023/08/17 11:18:34;;;;;;;13.65;9.02;;;27.00;99.90;;;;;;5097795;28;20229;-89
2023/08/17 11:21:03;;;;;;;13.23;9.32;;;27.00;99.90;;;;;;5029155;28;20190;-89
2023/08/17 11:23:33;;;;;;;16.00;9.13;;;27.00;99.90;;;;;;5028426;28;20206;-88
2023/08/17 11:26:01;;;;;;;11.18;8.68;;;27.00;99.90;;;;;;5020425;28;20567;-86
2023/08/17 11:28:36;;;;;;;13.98;9.68;;;27.10;99.90;;;;;;5025462;28;20194;-86
2023/08/17 11:31:16;;;;;;;13.95;9.75;;;27.00;99.90;;;;;;5015259;28;20194;-86
2023/08/17 11:33:47;;;;;;;15.63;9.43;;;27.10;99.90;;;;;;5011218;28;20190;-85
2023/08/17 11:36:15;;;;;;;14.73;9.52;;;27.10;99.90;;;;;;5021683;28;20217;-85
2023/08/17 11:38:43;;;;;;;15.48;10.02;;;27.10;99.90;;;;;;5012427;28;20570;-86
2023/08/17 11:41:11;;;;;;;14.77;9.50;;;27.10;99.90;;;;;;5019633;28;20202;-85
2023/08/17 11:43:43;;;;;;;17.08;9.73;;;27.10;99.90;;;;;;5015735;28;20214;-86
2023/08/17 11:46:11;;;;;;;12.48;9.77;;;27.10;99.90;;;;;;5012902;28;20206;-85
2023/08/17 11:48:40;;;;;;;14.25;8.93;;;27.10;99.90;;;;;;5021416;28;20193;-85
2023/08/17 11:51:08;;;;;;;14.75;9.70;;;27.10;99.90;;;;;;5020826;28;20202;-85
2023/08/17 11:53:36;;;;;;;11.68;8.73;;;27.10;99.90;;;;;;5013374;28;20236;-84
2023/08/17 11:56:04;;;;;;;11.70;9.15;;;27.20;99.90;;;;;;5025221;28;20210;-85
2023/08/17 11:58:56;;;;;;;12.10;8.88;;;27.10;99.90;;;;;;5011330;28;20281;-85
2023/08/17 12:01:24;;;;;;;13.45;9.32;;;27.20;99.90;;;;;;5012154;28;20216;-86
2023/08/17 12:03:52;;;;;;;16.58;10.00;;;27.10;99.90;;;;;;5016978;28;20205;-84
2023/08/17 12:06:20;;;;;;;17.85;10.00;;;27.10;99.90;;;;;;5023827;28;20182;-86
2023/08/17 12:08:48;;;;;;;14.75;10.52;;;27.10;99.90;;;;;;5023637;28;20230;-85
2023/08/17 12:11:19;;;;;;;16.00;9.23;;;27.10;99.90;;;;;;5003127;28;20203;-85
2023/08/17 12:13:51;;;;;;;14.10;9.07;;;27.10;99.90;;;;;;5008822;28;20264;-85
2023/08/17 12:16:20;;;;;;;14.18;8.90;;;27.00;99.90;;;;;;5025434;28;20206;-86
2023/08/17 12:18:52;;;;;;;16.95;8.93;;;27.00;99.90;;;;;;5012509;28;20785;-85
2023/08/17 12:21:23;;;;;;;20.23;10.05;;;27.00;99.90;;;;;;5024169;28;20171;-85
2023/08/17 12:23:51;;;;;;;13.52;9.65;;;27.00;99.90;;;;;;5032029;28;20279;-85
2023/08/17 12:26:22;;;;;;;16.23;10.05;;;27.00;99.90;;;;;;5039930;28;20191;-85
2023/08/17 12:28:52;;;;;;;13.93;9.85;;;27.00;99.90;;;;;;5014228;28;20198;-88
2023/08/17 12:31:23;;;;;;;14.73;9.00;;;27.00;99.90;;;;;;5025648;28;20273;-89
2023/08/17 12:33:52;;;;;;;11.82;8.57;;;26.90;99.90;;;;;;5028096;28;20198;-90
2023/08/17 12:36:21;;;;;;;11.88;7.85;;;26.80;99.90;;;;;;5012071;28;20214;-90
2023/08/17 12:38:49;;;;;;;11.52;7.80;;;26.80;99.90;;;;;;5033851;28;20207;-84
2023/08/17 12:41:17;;;;;;;13.57;7.15;;;26.70;99.90;;;;;;5026246;28;20225;-84
2023/08/17 12:43:45;;;;;;;15.13;8.38;;;26.50;99.90;;;;;;5026555;28;20210;-83
2023/08/17 12:46:13;;;;;;;13.98;7.43;;;26.40;99.90;;;;;;5026434;28;20210;-84
2023/08/17 12:48:48;;;;;;;8.88;7.00;;;26.40;99.90;;;;;;5042870;28;20162;-85
2023/08/17 12:51:19;;;;;;;16.05;9.00;;;26.40;99.90;;;;;;5021039;28;20196;-85
2023/08/17 12:53:49;;;;;;;11.43;7.57;;;26.30;99.90;;;;;;5025252;28;20182;-85
2023/08/17 12:56:19;;;;;;;12.25;7.22;;;26.20;99.90;;;;;;5040749;28;20182;-86
2023/08/17 12:58:49;;;;;;;10.63;7.07;;;26.20;99.90;;;;;;5020838;28;20194;-90
2023/08/17 13:01:18;;;;;;;7.72;6.93;;;26.20;99.90;;;;;;5035993;28;20194;-86